sensor_id;sensor_type;location;lat;lon;timestamp;P1;durP1;ratioP1;P2;durP2;ratioP2
4529;SDS011;2277;51.626;7.516;2024-02-14T00:00:28;5.63;;;3.27;;
4529;SDS011;2277;51.626;7.516;2024-02-14T00:02:53;4.20;;;2.27;;
4529;SDS011;2277;51.626;7.516;2024-02-14T00:05:19;3.67;;;2.37;;
4529;SDS011;2277;51.626;7.516;2024-02-14T00:07:45;3.37;;;2.43;;
4529;SDS011;2277;51.626;7.516;2024-02-14T00:10:10;3.63;;;2.47;;
4529;SDS011;2277;51.626;7.516;2024-02-14T00:12:36;3.03;;;2.40;;
4529;SDS011;2277;51.626;7.516;2024-02-14T00:15:02;2.97;;;2.30;;
4529;SDS011;2277;51.626;7.516;2024-02-14T00:17:29;4.00;;;3.70;;
4529;SDS011;2277;51.626;7.516;2024-02-14T00:19:55;3.60;;;2.60;;
4529;SDS011;2277;51.626;7.516;2024-02-14T00:22:20;3.90;;;2.60;;
4529;SDS011;2277;51.626;7.516;2024-02-14T00:24:46;7.30;;;2.90;;
4529;SDS011;2277;51.626;7.516;2024-02-14T00:27:11;2.70;;;2.50;;
4529;SDS011;2277;51.626;7.516;2024-02-14T00:29:39;5.20;;;2.63;;
4529;SDS011;2277;51.626;7.516;2024-02-14T00:32:05;4.70;;;2.77;;
4529;SDS011;2277;51.626;7.516;2024-02-14T00:34:31;6.03;;;2.40;;
4529;SDS011;2277;51.626;7.516;2024-02-14T00:36:56;8.20;;;2.67;;
4529;SDS011;2277;51.626;7.516;2024-02-14T00:39:22;6.17;;;2.93;;
4529;SDS011;2277;51.626;7.516;2024-02-14T00:41:47;3.10;;;2.33;;
4529;SDS011;2277;51.626;7.516;2024-02-14T00:44:13;7.57;;;2.50;;
4529;SDS011;2277;51.626;7.516;2024-02-14T00:46:44;9.00;;;3.30;;
4529;SDS011;2277;51.626;7.516;2024-02-14T00:49:09;7.40;;;2.60;;
4529;SDS011;2277;51.626;7.516;2024-02-14T00:51:35;5.40;;;2.80;;
4529;SDS011;2277;51.626;7.516;2024-02-14T00:54:03;2.90;;;2.33;;
4529;SDS011;2277;51.626;7.516;2024-02-14T00:56:29;2.70;;;2.00;;
4529;SDS011;2277;51.626;7.516;2024-02-14T00:58:54;3.47;;;2.43;;
4529;SDS011;2277;51.626;7.516;2024-02-14T01:01:21;4.43;;;2.60;;
4529;SDS011;2277;51.626;7.516;2024-02-14T01:03:47;4.37;;;2.90;;
4529;SDS011;2277;51.626;7.516;2024-02-14T01:06:12;3.43;;;2.13;;
4529;SDS011;2277;51.626;7.516;2024-02-14T01:08:39;2.80;;;2.27;;
4529;SDS011;2277;51.626;7.516;2024-02-14T01:11:06;2.50;;;2.20;;
4529;SDS011;2277;51.626;7.516;2024-02-14T01:13:32;2.43;;;2.10;;
4529;SDS011;2277;51.626;7.516;2024-02-14T01:15:58;2.80;;;2.13;;
4529;SDS011;2277;51.626;7.516;2024-02-14T01:18:23;5.07;;;2.17;;
4529;SDS011;2277;51.626;7.516;2024-02-14T01:20:49;6.80;;;2.07;;
4529;SDS011;2277;51.626;7.516;2024-02-14T01:23:15;5.23;;;4.00;;
4529;SDS011;2277;51.626;7.516;2024-02-14T01:25:41;2.87;;;2.63;;
4529;SDS011;2277;51.626;7.516;2024-02-14T01:28:07;2.30;;;1.63;;
4529;SDS011;2277;51.626;7.516;2024-02-14T01:30:33;2.70;;;2.13;;
4529;SDS011;2277;51.626;7.516;2024-02-14T01:33:01;2.80;;;2.27;;
4529;SDS011;2277;51.626;7.516;2024-02-14T01:35:29;4.47;;;1.70;;
4529;SDS011;2277;51.626;7.516;2024-02-14T01:37:55;2.10;;;1.50;;
4529;SDS011;2277;51.626;7.516;2024-02-14T01:40:20;5.67;;;1.90;;
4529;SDS011;2277;51.626;7.516;2024-02-14T01:42:46;4.17;;;2.27;;
4529;SDS011;2277;51.626;7.516;2024-02-14T01:45:12;2.73;;;2.00;;
4529;SDS011;2277;51.626;7.516;2024-02-14T01:47:38;2.20;;;2.00;;
4529;SDS011;2277;51.626;7.516;2024-02-14T01:50:06;3.60;;;1.80;;
4529;SDS011;2277;51.626;7.516;2024-02-14T01:52:36;2.17;;;1.97;;
4529;SDS011;2277;51.626;7.516;2024-02-14T01:55:05;3.93;;;2.00;;
4529;SDS011;2277;51.626;7.516;2024-02-14T01:57:32;4.80;;;2.30;;
4529;SDS011;2277;51.626;7.516;2024-02-14T01:59:59;2.60;;;1.80;;
4529;SDS011;2277;51.626;7.516;2024-02-14T02:02:29;4.20;;;1.77;;
4529;SDS011;2277;51.626;7.516;2024-02-14T02:04:55;3.27;;;2.10;;
4529;SDS011;2277;51.626;7.516;2024-02-14T02:07:20;4.77;;;2.23;;
4529;SDS011;2277;51.626;7.516;2024-02-14T02:09:46;2.30;;;1.90;;
4529;SDS011;2277;51.626;7.516;2024-02-14T02:12:12;1.80;;;1.70;;
4529;SDS011;2277;51.626;7.516;2024-02-14T02:14:37;2.20;;;1.53;;
4529;SDS011;2277;51.626;7.516;2024-02-14T02:17:05;3.80;;;2.20;;
4529;SDS011;2277;51.626;7.516;2024-02-14T02:19:33;2.30;;;1.87;;
4529;SDS011;2277;51.626;7.516;2024-02-14T02:22:00;3.33;;;1.70;;
4529;SDS011;2277;51.626;7.516;2024-02-14T02:24:26;2.40;;;2.20;;
4529;SDS011;2277;51.626;7.516;2024-02-14T02:26:51;1.93;;;1.57;;
4529;SDS011;2277;51.626;7.516;2024-02-14T02:29:17;2.90;;;2.60;;
4529;SDS011;2277;51.626;7.516;2024-02-14T02:31:44;3.60;;;1.90;;
4529;SDS011;2277;51.626;7.516;2024-02-14T02:34:10;3.80;;;1.90;;
4529;SDS011;2277;51.626;7.516;2024-02-14T02:36:36;2.20;;;2.00;;
4529;SDS011;2277;51.626;7.516;2024-02-14T02:39:03;3.97;;;2.10;;
4529;SDS011;2277;51.626;7.516;2024-02-14T02:41:29;5.57;;;3.90;;
4529;SDS011;2277;51.626;7.516;2024-02-14T02:43:56;4.07;;;1.90;;
4529;SDS011;2277;51.626;7.516;2024-02-14T02:46:22;4.80;;;2.50;;
4529;SDS011;2277;51.626;7.516;2024-02-14T02:48:48;1.93;;;1.83;;
4529;SDS011;2277;51.626;7.516;2024-02-14T02:51:17;1.90;;;1.70;;
4529;SDS011;2277;51.626;7.516;2024-02-14T02:53:43;3.37;;;2.47;;
4529;SDS011;2277;51.626;7.516;2024-02-14T02:56:08;2.27;;;2.07;;
4529;SDS011;2277;51.626;7.516;2024-02-14T02:58:34;2.00;;;1.60;;
4529;SDS011;2277;51.626;7.516;2024-02-14T03:00:59;2.93;;;1.93;;
4529;SDS011;2277;51.626;7.516;2024-02-14T03:03:25;3.50;;;2.00;;
4529;SDS011;2277;51.626;7.516;2024-02-14T03:05:53;2.57;;;2.00;;
4529;SDS011;2277;51.626;7.516;2024-02-14T03:08:20;5.63;;;2.20;;
4529;SDS011;2277;51.626;7.516;2024-02-14T03:10:46;1.80;;;1.70;;
4529;SDS011;2277;51.626;7.516;2024-02-14T03:13:12;2.37;;;2.00;;
4529;SDS011;2277;51.626;7.516;2024-02-14T03:15:38;2.40;;;1.67;;
4529;SDS011;2277;51.626;7.516;2024-02-14T03:18:04;2.30;;;1.93;;
4529;SDS011;2277;51.626;7.516;2024-02-14T03:20:33;3.90;;;2.40;;
4529;SDS011;2277;51.626;7.516;2024-02-14T03:22:58;1.97;;;1.70;;
4529;SDS011;2277;51.626;7.516;2024-02-14T03:25:24;3.00;;;2.40;;
4529;SDS011;2277;51.626;7.516;2024-02-14T03:27:50;3.70;;;2.20;;
4529;SDS011;2277;51.626;7.516;2024-02-14T03:30:18;3.33;;;2.30;;
4529;SDS011;2277;51.626;7.516;2024-02-14T03:32:45;2.10;;;1.60;;
4529;SDS011;2277;51.626;7.516;2024-02-14T03:35:11;3.63;;;2.00;;
4529;SDS011;2277;51.626;7.516;2024-02-14T03:37:38;3.70;;;2.00;;
4529;SDS011;2277;51.626;7.516;2024-02-14T03:40:05;4.53;;;1.80;;
4529;SDS011;2277;51.626;7.516;2024-02-14T03:42:32;2.10;;;1.90;;
4529;SDS011;2277;51.626;7.516;2024-02-14T03:44:59;4.93;;;2.23;;
4529;SDS011;2277;51.626;7.516;2024-02-14T03:47:30;1.83;;;1.70;;
4529;SDS011;2277;51.626;7.516;2024-02-14T03:49:57;2.80;;;1.87;;
4529;SDS011;2277;51.626;7.516;2024-02-14T03:52:27;2.43;;;2.20;;
4529;SDS011;2277;51.626;7.516;2024-02-14T03:54:53;2.80;;;2.53;;
4529;SDS011;2277;51.626;7.516;2024-02-14T03:57:18;4.27;;;2.90;;
4529;SDS011;2277;51.626;7.516;2024-02-14T03:59:44;6.93;;;2.23;;
4529;SDS011;2277;51.626;7.516;2024-02-14T04:02:10;3.10;;;2.73;;
4529;SDS011;2277;51.626;7.516;2024-02-14T04:04:36;2.33;;;1.93;;
4529;SDS011;2277;51.626;7.516;2024-02-14T04:07:03;3.27;;;1.77;;
4529;SDS011;2277;51.626;7.516;2024-02-14T04:09:29;2.30;;;2.10;;
4529;SDS011;2277;51.626;7.516;2024-02-14T04:11:54;2.33;;;2.23;;
4529;SDS011;2277;51.626;7.516;2024-02-14T04:14:20;3.77;;;2.33;;
4529;SDS011;2277;51.626;7.516;2024-02-14T04:16:46;2.83;;;2.40;;
4529;SDS011;2277;51.626;7.516;2024-02-14T04:19:11;3.83;;;2.77;;
4529;SDS011;2277;51.626;7.516;2024-02-14T04:21:38;2.20;;;2.00;;
4529;SDS011;2277;51.626;7.516;2024-02-14T04:24:03;2.70;;;2.43;;
4529;SDS011;2277;51.626;7.516;2024-02-14T04:26:29;4.93;;;2.50;;
4529;SDS011;2277;51.626;7.516;2024-02-14T04:28:55;2.03;;;1.60;;
4529;SDS011;2277;51.626;7.516;2024-02-14T04:31:20;2.70;;;2.00;;
4529;SDS011;2277;51.626;7.516;2024-02-14T04:33:46;2.30;;;2.00;;
4529;SDS011;2277;51.626;7.516;2024-02-14T04:36:20;2.70;;;1.80;;
4529;SDS011;2277;51.626;7.516;2024-02-14T04:38:47;3.57;;;2.20;;
4529;SDS011;2277;51.626;7.516;2024-02-14T04:41:13;3.03;;;2.10;;
4529;SDS011;2277;51.626;7.516;2024-02-14T04:43:39;2.33;;;2.13;;
4529;SDS011;2277;51.626;7.516;2024-02-14T04:46:05;2.70;;;2.07;;
4529;SDS011;2277;51.626;7.516;2024-02-14T04:48:35;4.13;;;2.10;;
4529;SDS011;2277;51.626;7.516;2024-02-14T04:51:01;2.57;;;2.10;;
4529;SDS011;2277;51.626;7.516;2024-02-14T04:53:27;3.23;;;2.37;;
4529;SDS011;2277;51.626;7.516;2024-02-14T04:55:53;2.80;;;2.27;;
4529;SDS011;2277;51.626;7.516;2024-02-14T04:58:19;4.00;;;2.27;;
4529;SDS011;2277;51.626;7.516;2024-02-14T05:00:45;3.07;;;2.10;;
4529;SDS011;2277;51.626;7.516;2024-02-14T05:03:10;3.63;;;2.67;;
4529;SDS011;2277;51.626;7.516;2024-02-14T05:05:36;2.80;;;2.50;;
4529;SDS011;2277;51.626;7.516;2024-02-14T05:08:03;3.20;;;2.93;;
4529;SDS011;2277;51.626;7.516;2024-02-14T05:10:28;4.70;;;3.53;;
4529;SDS011;2277;51.626;7.516;2024-02-14T05:12:54;4.27;;;3.33;;
4529;SDS011;2277;51.626;7.516;2024-02-14T05:15:20;3.40;;;3.10;;
4529;SDS011;2277;51.626;7.516;2024-02-14T05:17:46;4.57;;;4.07;;
4529;SDS011;2277;51.626;7.516;2024-02-14T05:20:11;3.23;;;2.93;;
4529;SDS011;2277;51.626;7.516;2024-02-14T05:22:37;6.03;;;3.47;;
4529;SDS011;2277;51.626;7.516;2024-02-14T05:25:04;3.50;;;3.20;;
4529;SDS011;2277;51.626;7.516;2024-02-14T05:27:32;5.60;;;4.57;;
4529;SDS011;2277;51.626;7.516;2024-02-14T05:29:58;5.30;;;3.60;;
4529;SDS011;2277;51.626;7.516;2024-02-14T05:32:24;4.43;;;3.37;;
4529;SDS011;2277;51.626;7.516;2024-02-14T05:34:50;3.63;;;3.33;;
4529;SDS011;2277;51.626;7.516;2024-02-14T05:37:16;5.20;;;3.90;;
4529;SDS011;2277;51.626;7.516;2024-02-14T05:39:42;4.30;;;3.37;;
4529;SDS011;2277;51.626;7.516;2024-02-14T05:42:07;5.10;;;3.73;;
4529;SDS011;2277;51.626;7.516;2024-02-14T05:44:33;4.37;;;3.47;;
4529;SDS011;2277;51.626;7.516;2024-02-14T05:46:59;4.40;;;4.00;;
4529;SDS011;2277;51.626;7.516;2024-02-14T05:49:25;4.40;;;3.17;;
4529;SDS011;2277;51.626;7.516;2024-02-14T05:51:51;7.00;;;4.37;;
4529;SDS011;2277;51.626;7.516;2024-02-14T05:54:18;5.70;;;5.00;;
4529;SDS011;2277;51.626;7.516;2024-02-14T05:56:44;5.60;;;3.43;;
4529;SDS011;2277;51.626;7.516;2024-02-14T05:59:10;4.23;;;3.37;;
4529;SDS011;2277;51.626;7.516;2024-02-14T06:01:36;3.60;;;3.20;;
4529;SDS011;2277;51.626;7.516;2024-02-14T06:04:02;3.77;;;3.40;;
4529;SDS011;2277;51.626;7.516;2024-02-14T06:06:27;3.63;;;3.13;;
4529;SDS011;2277;51.626;7.516;2024-02-14T06:08:53;5.50;;;3.93;;
4529;SDS011;2277;51.626;7.516;2024-02-14T06:11:19;5.70;;;4.30;;
4529;SDS011;2277;51.626;7.516;2024-02-14T06:13:46;3.10;;;2.70;;
4529;SDS011;2277;51.626;7.516;2024-02-14T06:16:13;4.53;;;3.70;;
4529;SDS011;2277;51.626;7.516;2024-02-14T06:18:38;7.83;;;4.63;;
4529;SDS011;2277;51.626;7.516;2024-02-14T06:21:05;3.03;;;2.73;;
4529;SDS011;2277;51.626;7.516;2024-02-14T06:23:31;4.67;;;3.27;;
4529;SDS011;2277;51.626;7.516;2024-02-14T06:25:57;3.53;;;3.23;;
4529;SDS011;2277;51.626;7.516;2024-02-14T06:28:23;5.57;;;3.60;;
4529;SDS011;2277;51.626;7.516;2024-02-14T06:30:49;6.80;;;4.80;;
4529;SDS011;2277;51.626;7.516;2024-02-14T06:33:15;3.87;;;3.23;;
4529;SDS011;2277;51.626;7.516;2024-02-14T06:35:40;4.37;;;3.40;;
4529;SDS011;2277;51.626;7.516;2024-02-14T06:38:06;4.37;;;3.70;;
4529;SDS011;2277;51.626;7.516;2024-02-14T06:40:32;4.00;;;3.20;;
4529;SDS011;2277;51.626;7.516;2024-02-14T06:42:58;6.53;;;4.03;;
4529;SDS011;2277;51.626;7.516;2024-02-14T06:45:28;4.80;;;4.00;;
4529;SDS011;2277;51.626;7.516;2024-02-14T06:47:54;5.27;;;4.43;;
4529;SDS011;2277;51.626;7.516;2024-02-14T06:50:20;5.70;;;4.67;;
4529;SDS011;2277;51.626;7.516;2024-02-14T06:52:45;5.77;;;3.80;;
4529;SDS011;2277;51.626;7.516;2024-02-14T06:55:11;5.43;;;4.40;;
4529;SDS011;2277;51.626;7.516;2024-02-14T06:57:36;3.87;;;3.47;;
4529;SDS011;2277;51.626;7.516;2024-02-14T07:00:04;6.30;;;4.77;;
4529;SDS011;2277;51.626;7.516;2024-02-14T07:02:31;6.20;;;4.17;;
4529;SDS011;2277;51.626;7.516;2024-02-14T07:04:57;4.53;;;4.13;;
4529;SDS011;2277;51.626;7.516;2024-02-14T07:07:22;6.80;;;5.03;;
4529;SDS011;2277;51.626;7.516;2024-02-14T07:09:48;7.70;;;4.07;;
4529;SDS011;2277;51.626;7.516;2024-02-14T07:12:13;5.93;;;4.90;;
4529;SDS011;2277;51.626;7.516;2024-02-14T07:14:39;7.00;;;5.23;;
4529;SDS011;2277;51.626;7.516;2024-02-14T07:17:05;9.57;;;6.20;;
4529;SDS011;2277;51.626;7.516;2024-02-14T07:19:31;5.20;;;3.60;;
4529;SDS011;2277;51.626;7.516;2024-02-14T07:21:56;5.30;;;4.80;;
4529;SDS011;2277;51.626;7.516;2024-02-14T07:24:22;5.03;;;3.93;;
4529;SDS011;2277;51.626;7.516;2024-02-14T07:26:48;5.80;;;5.20;;
4529;SDS011;2277;51.626;7.516;2024-02-14T07:29:13;4.83;;;3.97;;
4529;SDS011;2277;51.626;7.516;2024-02-14T07:31:39;5.83;;;5.23;;
4529;SDS011;2277;51.626;7.516;2024-02-14T07:34:05;7.17;;;5.13;;
4529;SDS011;2277;51.626;7.516;2024-02-14T07:36:31;6.47;;;4.80;;
4529;SDS011;2277;51.626;7.516;2024-02-14T07:38:57;6.53;;;5.00;;
4529;SDS011;2277;51.626;7.516;2024-02-14T07:41:23;5.03;;;4.53;;
4529;SDS011;2277;51.626;7.516;2024-02-14T07:43:48;6.30;;;5.70;;
4529;SDS011;2277;51.626;7.516;2024-02-14T07:46:18;7.23;;;6.37;;
4529;SDS011;2277;51.626;7.516;2024-02-14T07:48:44;5.70;;;4.30;;
4529;SDS011;2277;51.626;7.516;2024-02-14T07:51:10;5.10;;;4.47;;
4529;SDS011;2277;51.626;7.516;2024-02-14T07:53:36;7.70;;;5.67;;
4529;SDS011;2277;51.626;7.516;2024-02-14T07:56:01;7.33;;;5.70;;
4529;SDS011;2277;51.626;7.516;2024-02-14T07:58:27;7.87;;;5.33;;
4529;SDS011;2277;51.626;7.516;2024-02-14T08:00:53;7.60;;;4.97;;
4529;SDS011;2277;51.626;7.516;2024-02-14T08:03:18;8.07;;;6.23;;
4529;SDS011;2277;51.626;7.516;2024-02-14T08:05:44;9.73;;;5.27;;
4529;SDS011;2277;51.626;7.516;2024-02-14T08:08:10;8.33;;;5.73;;
4529;SDS011;2277;51.626;7.516;2024-02-14T08:10:35;10.33;;;7.30;;
4529;SDS011;2277;51.626;7.516;2024-02-14T08:13:01;7.97;;;5.90;;
4529;SDS011;2277;51.626;7.516;2024-02-14T08:15:29;9.43;;;7.07;;
4529;SDS011;2277;51.626;7.516;2024-02-14T08:17:55;10.70;;;6.37;;
4529;SDS011;2277;51.626;7.516;2024-02-14T08:20:21;12.60;;;6.10;;
4529;SDS011;2277;51.626;7.516;2024-02-14T08:22:48;7.47;;;6.37;;
4529;SDS011;2277;51.626;7.516;2024-02-14T08:25:14;8.77;;;6.40;;
4529;SDS011;2277;51.626;7.516;2024-02-14T08:27:40;9.60;;;7.83;;
4529;SDS011;2277;51.626;7.516;2024-02-14T08:30:05;8.20;;;6.63;;
4529;SDS011;2277;51.626;7.516;2024-02-14T08:32:32;7.40;;;5.80;;
4529;SDS011;2277;51.626;7.516;2024-02-14T08:34:59;8.27;;;6.23;;
4529;SDS011;2277;51.626;7.516;2024-02-14T08:37:24;8.33;;;6.40;;
4529;SDS011;2277;51.626;7.516;2024-02-14T08:39:50;10.73;;;6.47;;
4529;SDS011;2277;51.626;7.516;2024-02-14T08:42:16;8.90;;;7.10;;
4529;SDS011;2277;51.626;7.516;2024-02-14T08:44:41;9.97;;;7.03;;
4529;SDS011;2277;51.626;7.516;2024-02-14T08:47:07;7.17;;;6.47;;
4529;SDS011;2277;51.626;7.516;2024-02-14T08:49:33;8.70;;;6.67;;
4529;SDS011;2277;51.626;7.516;2024-02-14T08:51:59;8.20;;;5.87;;
4529;SDS011;2277;51.626;7.516;2024-02-14T08:54:25;9.10;;;7.03;;
4529;SDS011;2277;51.626;7.516;2024-02-14T08:56:52;8.33;;;6.50;;
4529;SDS011;2277;51.626;7.516;2024-02-14T08:59:20;7.30;;;5.87;;
4529;SDS011;2277;51.626;7.516;2024-02-14T09:01:46;7.03;;;5.27;;
4529;SDS011;2277;51.626;7.516;2024-02-14T09:04:13;8.97;;;5.53;;
4529;SDS011;2277;51.626;7.516;2024-02-14T09:06:38;8.53;;;5.70;;
4529;SDS011;2277;51.626;7.516;2024-02-14T09:09:05;8.00;;;5.40;;
4529;SDS011;2277;51.626;7.516;2024-02-14T09:11:32;8.67;;;6.37;;
4529;SDS011;2277;51.626;7.516;2024-02-14T09:13:57;7.17;;;5.03;;
4529;SDS011;2277;51.626;7.516;2024-02-14T09:16:29;6.67;;;5.03;;
4529;SDS011;2277;51.626;7.516;2024-02-14T09:18:56;7.03;;;5.50;;
4529;SDS011;2277;51.626;7.516;2024-02-14T09:21:22;5.37;;;4.30;;
4529;SDS011;2277;51.626;7.516;2024-02-14T09:23:48;7.23;;;5.13;;
4529;SDS011;2277;51.626;7.516;2024-02-14T09:26:13;6.17;;;5.20;;
4529;SDS011;2277;51.626;7.516;2024-02-14T09:28:41;6.67;;;5.20;;
4529;SDS011;2277;51.626;7.516;2024-02-14T09:31:07;5.27;;;4.33;;
4529;SDS011;2277;51.626;7.516;2024-02-14T09:33:36;6.53;;;5.03;;
4529;SDS011;2277;51.626;7.516;2024-02-14T09:36:02;7.23;;;5.53;;
4529;SDS011;2277;51.626;7.516;2024-02-14T09:38:29;8.37;;;5.80;;
4529;SDS011;2277;51.626;7.516;2024-02-14T09:40:56;5.10;;;4.00;;
4529;SDS011;2277;51.626;7.516;2024-02-14T09:43:31;6.53;;;5.93;;
4529;SDS011;2277;51.626;7.516;2024-02-14T09:46:01;5.80;;;4.63;;
4529;SDS011;2277;51.626;7.516;2024-02-14T09:48:28;6.80;;;5.00;;
4529;SDS011;2277;51.626;7.516;2024-02-14T09:50:55;5.73;;;5.03;;
4529;SDS011;2277;51.626;7.516;2024-02-14T09:53:21;8.30;;;5.60;;
4529;SDS011;2277;51.626;7.516;2024-02-14T09:55:48;10.37;;;5.23;;
4529;SDS011;2277;51.626;7.516;2024-02-14T09:58:15;6.23;;;4.93;;
4529;SDS011;2277;51.626;7.516;2024-02-14T10:00:42;5.77;;;4.67;;
4529;SDS011;2277;51.626;7.516;2024-02-14T10:03:08;5.67;;;4.90;;
4529;SDS011;2277;51.626;7.516;2024-02-14T10:05:35;4.30;;;3.80;;
4529;SDS011;2277;51.626;7.516;2024-02-14T10:08:01;6.60;;;3.87;;
4529;SDS011;2277;51.626;7.516;2024-02-14T10:10:26;4.03;;;3.07;;
4529;SDS011;2277;51.626;7.516;2024-02-14T10:12:55;4.10;;;3.00;;
4529;SDS011;2277;51.626;7.516;2024-02-14T10:15:21;7.30;;;3.70;;
4529;SDS011;2277;51.626;7.516;2024-02-14T10:17:48;7.00;;;3.80;;
4529;SDS011;2277;51.626;7.516;2024-02-14T10:20:16;5.20;;;4.70;;
4529;SDS011;2277;51.626;7.516;2024-02-14T10:22:42;6.67;;;4.93;;
4529;SDS011;2277;51.626;7.516;2024-02-14T10:25:09;5.63;;;4.50;;
4529;SDS011;2277;51.626;7.516;2024-02-14T10:27:38;5.07;;;3.80;;
4529;SDS011;2277;51.626;7.516;2024-02-14T10:30:05;4.60;;;3.80;;
4529;SDS011;2277;51.626;7.516;2024-02-14T10:32:34;5.70;;;4.20;;
4529;SDS011;2277;51.626;7.516;2024-02-14T10:35:12;4.00;;;3.50;;
4529;SDS011;2277;51.626;7.516;2024-02-14T10:37:39;4.53;;;3.63;;
4529;SDS011;2277;51.626;7.516;2024-02-14T10:40:04;5.90;;;4.30;;
4529;SDS011;2277;51.626;7.516;2024-02-14T10:42:31;4.87;;;3.30;;
4529;SDS011;2277;51.626;7.516;2024-02-14T10:44:57;5.43;;;3.77;;
4529;SDS011;2277;51.626;7.516;2024-02-14T10:47:24;5.63;;;4.40;;
4529;SDS011;2277;51.626;7.516;2024-02-14T10:49:57;4.17;;;3.73;;
4529;SDS011;2277;51.626;7.516;2024-02-14T10:52:26;8.40;;;4.47;;
4529;SDS011;2277;51.626;7.516;2024-02-14T10:54:59;3.60;;;3.17;;
4529;SDS011;2277;51.626;7.516;2024-02-14T10:57:26;6.87;;;3.63;;
4529;SDS011;2277;51.626;7.516;2024-02-14T10:59:54;3.57;;;3.27;;
4529;SDS011;2277;51.626;7.516;2024-02-14T11:02:20;4.10;;;3.57;;
4529;SDS011;2277;51.626;7.516;2024-02-14T11:04:46;6.20;;;4.70;;
4529;SDS011;2277;51.626;7.516;2024-02-14T11:07:13;5.00;;;3.90;;
4529;SDS011;2277;51.626;7.516;2024-02-14T11:09:41;6.07;;;3.37;;
4529;SDS011;2277;51.626;7.516;2024-02-14T11:12:07;4.13;;;3.50;;
4529;SDS011;2277;51.626;7.516;2024-02-14T11:14:34;3.63;;;3.27;;
4529;SDS011;2277;51.626;7.516;2024-02-14T11:17:09;4.20;;;3.80;;
4529;SDS011;2277;51.626;7.516;2024-02-14T11:19:35;4.00;;;3.60;;
4529;SDS011;2277;51.626;7.516;2024-02-14T11:22:10;3.90;;;2.90;;
4529;SDS011;2277;51.626;7.516;2024-02-14T11:24:40;7.33;;;3.40;;
4529;SDS011;2277;51.626;7.516;2024-02-14T11:27:10;8.30;;;4.50;;
4529;SDS011;2277;51.626;7.516;2024-02-14T11:29:38;5.03;;;4.07;;
4529;SDS011;2277;51.626;7.516;2024-02-14T11:32:05;3.40;;;3.10;;
4529;SDS011;2277;51.626;7.516;2024-02-14T11:34:33;3.13;;;2.83;;
4529;SDS011;2277;51.626;7.516;2024-02-14T11:36:59;3.83;;;3.53;;
4529;SDS011;2277;51.626;7.516;2024-02-14T11:39:25;3.67;;;3.00;;
4529;SDS011;2277;51.626;7.516;2024-02-14T11:41:51;3.00;;;2.67;;
4529;SDS011;2277;51.626;7.516;2024-02-14T11:44:18;4.03;;;3.10;;
4529;SDS011;2277;51.626;7.516;2024-02-14T11:46:47;5.00;;;2.80;;
4529;SDS011;2277;51.626;7.516;2024-02-14T11:49:13;3.67;;;3.20;;
4529;SDS011;2277;51.626;7.516;2024-02-14T11:51:39;6.37;;;3.60;;
4529;SDS011;2277;51.626;7.516;2024-02-14T11:54:06;3.90;;;2.60;;
4529;SDS011;2277;51.626;7.516;2024-02-14T11:56:36;3.20;;;2.20;;
4529;SDS011;2277;51.626;7.516;2024-02-14T11:59:03;2.43;;;2.03;;
4529;SDS011;2277;51.626;7.516;2024-02-14T12:01:31;6.17;;;3.13;;
4529;SDS011;2277;51.626;7.516;2024-02-14T12:03:58;4.83;;;2.27;;
4529;SDS011;2277;51.626;7.516;2024-02-14T12:06:28;3.37;;;3.07;;
4529;SDS011;2277;51.626;7.516;2024-02-14T12:08:57;3.00;;;2.40;;
4529;SDS011;2277;51.626;7.516;2024-02-14T12:11:26;2.80;;;2.60;;
4529;SDS011;2277;51.626;7.516;2024-02-14T12:13:54;2.90;;;2.57;;
4529;SDS011;2277;51.626;7.516;2024-02-14T12:16:19;2.50;;;2.30;;
4529;SDS011;2277;51.626;7.516;2024-02-14T12:18:46;5.17;;;2.57;;
4529;SDS011;2277;51.626;7.516;2024-02-14T12:21:11;2.67;;;2.47;;
4529;SDS011;2277;51.626;7.516;2024-02-14T12:23:37;3.80;;;3.40;;
4529;SDS011;2277;51.626;7.516;2024-02-14T12:26:03;3.87;;;2.63;;
4529;SDS011;2277;51.626;7.516;2024-02-14T12:28:30;2.57;;;2.37;;
4529;SDS011;2277;51.626;7.516;2024-02-14T12:30:56;4.23;;;2.60;;
4529;SDS011;2277;51.626;7.516;2024-02-14T12:33:26;2.40;;;2.20;;
4529;SDS011;2277;51.626;7.516;2024-02-14T12:35:55;2.63;;;2.07;;
4529;SDS011;2277;51.626;7.516;2024-02-14T12:38:23;5.60;;;2.90;;
4529;SDS011;2277;51.626;7.516;2024-02-14T12:40:49;3.40;;;3.03;;
4529;SDS011;2277;51.626;7.516;2024-02-14T12:43:15;3.07;;;2.77;;
4529;SDS011;2277;51.626;7.516;2024-02-14T12:45:41;6.80;;;3.30;;
4529;SDS011;2277;51.626;7.516;2024-02-14T12:48:08;6.57;;;3.00;;
4529;SDS011;2277;51.626;7.516;2024-02-14T12:50:35;3.13;;;2.53;;
4529;SDS011;2277;51.626;7.516;2024-02-14T12:53:02;3.17;;;2.87;;
4529;SDS011;2277;51.626;7.516;2024-02-14T12:55:29;3.60;;;3.30;;
4529;SDS011;2277;51.626;7.516;2024-02-14T12:57:55;4.53;;;2.63;;
4529;SDS011;2277;51.626;7.516;2024-02-14T13:00:21;3.00;;;2.70;;
4529;SDS011;2277;51.626;7.516;2024-02-14T13:02:47;6.10;;;4.67;;
4529;SDS011;2277;51.626;7.516;2024-02-14T13:05:13;4.00;;;3.60;;
4529;SDS011;2277;51.626;7.516;2024-02-14T13:07:39;5.13;;;4.40;;
4529;SDS011;2277;51.626;7.516;2024-02-14T13:10:09;5.70;;;4.70;;
4529;SDS011;2277;51.626;7.516;2024-02-14T13:12:37;6.93;;;4.60;;
4529;SDS011;2277;51.626;7.516;2024-02-14T13:15:04;3.63;;;3.00;;
4529;SDS011;2277;51.626;7.516;2024-02-14T13:17:30;5.27;;;4.20;;
4529;SDS011;2277;51.626;7.516;2024-02-14T13:19:56;6.73;;;4.43;;
4529;SDS011;2277;51.626;7.516;2024-02-14T13:22:24;5.10;;;4.00;;
4529;SDS011;2277;51.626;7.516;2024-02-14T13:24:50;7.23;;;3.60;;
4529;SDS011;2277;51.626;7.516;2024-02-14T13:27:16;7.00;;;4.17;;
4529;SDS011;2277;51.626;7.516;2024-02-14T13:29:42;6.87;;;5.40;;
4529;SDS011;2277;51.626;7.516;2024-02-14T13:32:08;5.70;;;4.83;;
4529;SDS011;2277;51.626;7.516;2024-02-14T13:34:34;8.00;;;4.30;;
4529;SDS011;2277;51.626;7.516;2024-02-14T13:36:59;5.50;;;4.40;;
4529;SDS011;2277;51.626;7.516;2024-02-14T13:39:25;5.07;;;4.57;;
4529;SDS011;2277;51.626;7.516;2024-02-14T13:41:51;5.93;;;4.80;;
4529;SDS011;2277;51.626;7.516;2024-02-14T13:44:17;9.40;;;6.00;;
4529;SDS011;2277;51.626;7.516;2024-02-14T13:46:43;5.53;;;4.27;;
4529;SDS011;2277;51.626;7.516;2024-02-14T13:49:15;10.03;;;6.17;;
4529;SDS011;2277;51.626;7.516;2024-02-14T13:51:46;5.43;;;4.33;;
4529;SDS011;2277;51.626;7.516;2024-02-14T13:54:12;6.10;;;3.80;;
4529;SDS011;2277;51.626;7.516;2024-02-14T13:56:38;4.60;;;3.80;;
4529;SDS011;2277;51.626;7.516;2024-02-14T13:59:03;6.63;;;3.40;;
4529;SDS011;2277;51.626;7.516;2024-02-14T14:01:29;4.03;;;3.47;;
4529;SDS011;2277;51.626;7.516;2024-02-14T14:03:55;5.63;;;3.27;;
4529;SDS011;2277;51.626;7.516;2024-02-14T14:06:21;3.37;;;3.00;;
4529;SDS011;2277;51.626;7.516;2024-02-14T14:08:49;3.60;;;3.30;;
4529;SDS011;2277;51.626;7.516;2024-02-14T14:11:15;4.63;;;3.70;;
4529;SDS011;2277;51.626;7.516;2024-02-14T14:13:40;5.70;;;3.70;;
4529;SDS011;2277;51.626;7.516;2024-02-14T14:16:06;5.00;;;2.93;;
4529;SDS011;2277;51.626;7.516;2024-02-14T14:18:32;3.13;;;2.63;;
4529;SDS011;2277;51.626;7.516;2024-02-14T14:20:58;3.53;;;3.23;;
4529;SDS011;2277;51.626;7.516;2024-02-14T14:23:23;3.90;;;2.67;;
4529;SDS011;2277;51.626;7.516;2024-02-14T14:25:49;3.77;;;2.90;;
4529;SDS011;2277;51.626;7.516;2024-02-14T14:28:14;4.10;;;3.30;;
4529;SDS011;2277;51.626;7.516;2024-02-14T14:30:40;7.33;;;2.93;;
4529;SDS011;2277;51.626;7.516;2024-02-14T14:33:06;3.57;;;2.37;;
4529;SDS011;2277;51.626;7.516;2024-02-14T14:35:35;4.37;;;3.97;;
4529;SDS011;2277;51.626;7.516;2024-02-14T14:38:02;4.30;;;3.20;;
4529;SDS011;2277;51.626;7.516;2024-02-14T14:40:28;5.83;;;3.60;;
4529;SDS011;2277;51.626;7.516;2024-02-14T14:42:54;3.77;;;3.10;;
4529;SDS011;2277;51.626;7.516;2024-02-14T14:45:19;3.70;;;3.13;;
4529;SDS011;2277;51.626;7.516;2024-02-14T14:47:45;5.50;;;3.00;;
4529;SDS011;2277;51.626;7.516;2024-02-14T14:50:11;4.30;;;3.73;;
4529;SDS011;2277;51.626;7.516;2024-02-14T14:52:38;5.73;;;3.33;;
4529;SDS011;2277;51.626;7.516;2024-02-14T14:55:04;4.70;;;3.70;;
4529;SDS011;2277;51.626;7.516;2024-02-14T14:57:30;4.37;;;3.50;;
4529;SDS011;2277;51.626;7.516;2024-02-14T14:59:56;4.70;;;3.47;;
4529;SDS011;2277;51.626;7.516;2024-02-14T15:02:21;4.13;;;3.60;;
4529;SDS011;2277;51.626;7.516;2024-02-14T15:04:47;6.70;;;4.50;;
4529;SDS011;2277;51.626;7.516;2024-02-14T15:07:13;4.07;;;3.30;;
4529;SDS011;2277;51.626;7.516;2024-02-14T15:09:39;4.87;;;3.60;;